sensor_id;sensor_type;location;lat;lon;timestamp;pressure;altitude;pressure_sealevel;temperature;humidity
23446;BME280;11895;48.738;9.320;2023-03-01T00:01:44;99560.03;;;2.32;100.00
23446;BME280;11895;48.738;9.320;2023-03-01T00:04:16;99554.75;;;2.12;100.00
23446;BME280;11895;48.738;9.320;2023-03-01T00:06:44;99559.16;;;2.22;100.00
23446;BME280;11895;48.738;9.320;2023-03-01T00:09:14;99558.28;;;2.29;100.00
23446;BME280;11895;48.738;9.320;2023-03-01T00:11:43;99553.84;;;2.22;100.00
23446;BME280;11895;48.738;9.320;2023-03-01T00:14:12;99561.84;;;2.28;100.00
23446;BME280;11895;48.738;9.320;2023-03-01T00:16:42;99563.59;;;2.26;100.00
23446;BME280;11895;48.738;9.320;2023-03-01T00:19:15;99568.03;;;2.24;100.00
23446;BME280;11895;48.738;9.320;2023-03-01T00:21:44;99558.28;;;2.17;100.00
23446;BME280;11895;48.738;9.320;2023-03-01T00:24:13;99561.88;;;2.18;100.00
23446;BME280;11895;48.738;9.320;2023-03-01T00:26:41;99554.78;;;2.18;100.00
23446;BME280;11895;48.738;9.320;2023-03-01T00:29:08;99562.72;;;2.17;100.00
23446;BME280;11895;48.738;9.320;2023-03-01T00:31:36;99567.16;;;2.15;100.00
23446;BME280;11895;48.738;9.320;2023-03-01T00:34:05;99564.50;;;2.07;100.00
23446;BME280;11895;48.738;9.320;2023-03-01T00:36:35;99562.75;;;2.06;100.00
23446;BME280;11895;48.738;9.320;2023-03-01T00:39:05;99557.44;;;2.01;100.00
23446;BME280;11895;48.738;9.320;2023-03-01T00:41:35;99555.66;;;1.99;100.00
23446;BME280;11895;48.738;9.320;2023-03-01T00:44:03;99547.69;;;1.97;100.00
23446;BME280;11895;48.738;9.320;2023-03-01T00:46:31;99559.22;;;1.95;100.00
23446;BME280;11895;48.738;9.320;2023-03-01T00:49:00;99555.66;;;1.93;100.00
23446;BME280;11895;48.738;9.320;2023-03-01T00:51:30;99551.25;;;1.95;100.00
23446;BME280;11895;48.738;9.320;2023-03-01T00:54:00;99556.56;;;1.79;100.00
23446;BME280;11895;48.738;9.320;2023-03-01T00:56:30;99553.00;;;1.61;100.00
23446;BME280;11895;48.738;9.320;2023-03-01T00:58:58;99542.38;;;1.76;100.00
23446;BME280;11895;48.738;9.320;2023-03-01T01:01:28;99547.69;;;1.74;100.00
23446;BME280;11895;48.738;9.320;2023-03-01T01:04:09;99546.81;;;1.75;100.00
23446;BME280;11895;48.738;9.320;2023-03-01T01:06:45;99547.66;;;1.84;100.00
23446;BME280;11895;48.738;9.320;2023-03-01T01:09:15;99541.50;;;1.82;100.00
23446;BME280;11895;48.738;9.320;2023-03-01T01:11:47;99548.59;;;1.79;100.00
23446;BME280;11895;48.738;9.320;2023-03-01T01:14:18;99555.66;;;1.77;100.00
23446;BME280;11895;48.738;9.320;2023-03-01T01:16:46;99542.38;;;1.82;100.00
23446;BME280;11895;48.738;9.320;2023-03-01T01:19:15;99541.50;;;1.75;100.00
23446;BME280;11895;48.738;9.320;2023-03-01T01:21:42;99548.56;;;1.70;100.00
23446;BME280;11895;48.738;9.320;2023-03-01T01:24:11;99535.28;;;1.58;100.00
23446;BME280;11895;48.738;9.320;2023-03-01T01:26:39;99536.16;;;1.54;100.00
23446;BME280;11895;48.738;9.320;2023-03-01T01:29:07;99531.72;;;1.54;100.00
23446;BME280;11895;48.738;9.320;2023-03-01T01:31:38;99536.16;;;1.57;100.00
23446;BME280;11895;48.738;9.320;2023-03-01T01:34:15;99527.31;;;1.61;100.00
23446;BME280;11895;48.738;9.320;2023-03-01T01:36:47;99523.75;;;1.59;100.00
23446;BME280;11895;48.738;9.320;2023-03-01T01:39:16;99519.34;;;1.66;100.00
23446;BME280;11895;48.738;9.320;2023-03-01T01:41:43;99518.47;;;1.76;100.00
23446;BME280;11895;48.738;9.320;2023-03-01T01:46:54;99515.81;;;2.00;100.00
23446;BME280;11895;48.738;9.320;2023-03-01T01:55:05;99514.03;;;2.04;100.00
23446;BME280;11895;48.738;9.320;2023-03-01T01:57:45;99506.03;;;2.19;100.00
23446;BME280;11895;48.738;9.320;2023-03-01T02:00:22;99511.28;;;2.41;100.00
23446;BME280;11895;48.738;9.320;2023-03-01T02:03:00;99508.59;;;2.53;100.00
23446;BME280;11895;48.738;9.320;2023-03-01T02:08:05;99502.34;;;2.72;100.00
23446;BME280;11895;48.738;9.320;2023-03-01T02:10:34;99496.97;;;2.78;100.00
23446;BME280;11895;48.738;9.320;2023-03-01T02:13:07;99489.84;;;2.83;100.00
23446;BME280;11895;48.738;9.320;2023-03-01T02:15:37;99482.75;;;2.92;100.00
23446;BME280;11895;48.738;9.320;2023-03-01T02:18:07;99482.75;;;2.92;100.00
23446;BME280;11895;48.738;9.320;2023-03-01T02:23:28;99480.88;;;3.06;100.00
23446;BME280;11895;48.738;9.320;2023-03-01T02:26:01;99468.53;;;2.96;100.00
23446;BME280;11895;48.738;9.320;2023-03-01T02:28:38;99468.63;;;2.77;100.00
23446;BME280;11895;48.738;9.320;2023-03-01T02:31:09;99466.78;;;2.89;100.00
23446;BME280;11895;48.738;9.320;2023-03-01T02:33:57;99457.88;;;2.90;100.00
23446;BME280;11895;48.738;9.320;2023-03-01T02:36:29;99457.06;;;2.83;100.00
23446;BME280;11895;48.738;9.320;2023-03-01T02:39:00;99456.88;;;3.09;100.00
23446;BME280;11895;48.738;9.320;2023-03-01T02:41:35;99456.06;;;3.01;100.00
23446;BME280;11895;48.738;9.320;2023-03-01T02:44:05;99449.84;;;2.99;100.00
23446;BME280;11895;48.738;9.320;2023-03-01T02:46:46;99449.84;;;3.05;100.00
23446;BME280;11895;48.738;9.320;2023-03-01T02:49:31;99455.19;;;2.99;100.00
23446;BME280;11895;48.738;9.320;2023-03-01T02:55:17;99449.75;;;3.14;100.00
23446;BME280;11895;48.738;9.320;2023-03-01T02:57:46;99445.38;;;3.10;100.00
23446;BME280;11895;48.738;9.320;2023-03-01T03:00:22;99441.72;;;3.23;100.00
23446;BME280;11895;48.738;9.320;2023-03-01T03:02:55;99436.53;;;3.05;100.00
23446;BME280;11895;48.738;9.320;2023-03-01T03:05:27;99439.03;;;3.29;100.00
23446;BME280;11895;48.738;9.320;2023-03-01T03:07:59;99429.16;;;3.41;100.00
23446;BME280;11895;48.738;9.320;2023-03-01T03:10:36;99430.84;;;3.51;100.00
23446;BME280;11895;48.738;9.320;2023-03-01T03:13:12;99425.38;;;3.69;100.00
23446;BME280;11895;48.738;9.320;2023-03-01T03:15:42;99421.81;;;3.67;100.00
23446;BME280;11895;48.738;9.320;2023-03-01T03:18:13;99418.28;;;3.68;100.00
23446;BME280;11895;48.738;9.320;2023-03-01T03:20:43;99418.28;;;3.68;100.00
23446;BME280;11895;48.738;9.320;2023-03-01T03:23:12;99420.81;;;3.80;100.00
23446;BME280;11895;48.738;9.320;2023-03-01T03:25:40;99422.69;;;3.74;100.00
23446;BME280;11895;48.738;9.320;2023-03-01T03:28:08;99414.72;;;3.69;100.00
23446;BME280;11895;48.738;9.320;2023-03-01T03:30:40;99416.56;;;3.61;100.00
23446;BME280;11895;48.738;9.320;2023-03-01T03:33:10;99416.69;;;3.46;100.00
23446;BME280;11895;48.738;9.320;2023-03-01T03:35:46;99418.38;;;3.59;100.00
23446;BME280;11895;48.738;9.320;2023-03-01T03:38:17;99415.59;;;3.73;100.00
23446;BME280;11895;48.738;9.320;2023-03-01T03:43:23;99420.06;;;3.69;100.00
23446;BME280;11895;48.738;9.320;2023-03-01T03:45:51;99414.56;;;3.88;100.00
23446;BME280;11895;48.738;9.320;2023-03-01T03:48:20;99415.53;;;3.77;100.00
23446;BME280;11895;48.738;9.320;2023-03-01T03:50:50;99412.38;;;3.34;100.00
23446;BME280;11895;48.738;9.320;2023-03-01T03:53:26;99418.47;;;3.48;100.00
23446;BME280;11895;48.738;9.320;2023-03-01T03:55:55;99417.59;;;3.45;100.00
23446;BME280;11895;48.738;9.320;2023-03-01T03:58:24;99411.34;;;3.49;100.00
23446;BME280;11895;48.738;9.320;2023-03-01T04:00:53;99407.75;;;3.53;100.00
23446;BME280;11895;48.738;9.320;2023-03-01T04:03:27;99401.25;;;3.81;100.00
23446;BME280;11895;48.738;9.320;2023-03-01T04:05:58;99407.50;;;3.80;100.00
23446;BME280;11895;48.738;9.320;2023-03-01T04:08:27;99406.09;;;3.40;100.00
23446;BME280;11895;48.738;9.320;2023-03-01T04:11:03;99398.63;;;3.80;100.00
23446;BME280;11895;48.738;9.320;2023-03-01T04:13:53;99396.81;;;3.83;100.00
23446;BME280;11895;48.738;9.320;2023-03-01T04:16:25;99388.72;;;3.94;100.00
23446;BME280;11895;48.738;9.320;2023-03-01T04:18:53;99387.81;;;3.97;100.00
23446;BME280;11895;48.738;9.320;2023-03-01T04:21:21;99382.41;;;4.03;100.00
23446;BME280;11895;48.738;9.320;2023-03-01T04:23:49;99386.78;;;4.05;100.00
23446;BME280;11895;48.738;9.320;2023-03-01T04:26:20;99383.38;;;3.94;100.00
23446;BME280;11895;48.738;9.320;2023-03-01T04:28:47;99380.75;;;3.90;100.00
23446;BME280;11895;48.738;9.320;2023-03-01T04:31:18;99389.63;;;3.92;100.00
23446;BME280;11895;48.738;9.320;2023-03-01T04:33:51;99383.53;;;3.79;100.00
23446;BME280;11895;48.738;9.320;2023-03-01T04:36:26;99384.34;;;3.89;100.00
23446;BME280;11895;48.738;9.320;2023-03-01T04:38:55;99386.06;;;3.93;100.00
23446;BME280;11895;48.738;9.320;2023-03-01T04:41:24;99384.25;;;3.95;100.00
23446;BME280;11895;48.738;9.320;2023-03-01T04:43:52;99385.06;;;4.03;100.00
23446;BME280;11895;48.738;9.320;2023-03-01T04:46:21;99378.75;;;4.10;100.00
23446;BME280;11895;48.738;9.320;2023-03-01T04:48:49;99386.34;;;3.65;100.00
23446;BME280;11895;48.738;9.320;2023-03-01T04:51:17;99380.03;;;3.75;100.00
23446;BME280;11895;48.738;9.320;2023-03-01T04:53:50;99372.94;;;3.71;100.00
23446;BME280;11895;48.738;9.320;2023-03-01T04:56:18;99380.19;;;3.57;100.00
23446;BME280;11895;48.738;9.320;2023-03-01T04:58:46;99378.16;;;3.83;100.00
23446;BME280;11895;48.738;9.320;2023-03-01T05:01:18;99386.91;;;3.95;100.00
23446;BME280;11895;48.738;9.320;2023-03-01T05:03:49;99382.41;;;4.00;100.00
23446;BME280;11895;48.738;9.320;2023-03-01T05:06:20;99379.94;;;3.84;100.00
23446;BME280;11895;48.738;9.320;2023-03-01T05:08:49;99375.41;;;3.93;100.00
23446;BME280;11895;48.738;9.320;2023-03-01T05:11:16;99373.75;;;3.79;100.00
23446;BME280;11895;48.738;9.320;2023-03-01T05:13:44;99377.34;;;3.78;100.00
23446;BME280;11895;48.738;9.320;2023-03-01T05:16:12;99378.06;;;3.91;100.00
23446;BME280;11895;48.738;9.320;2023-03-01T05:18:41;99370.31;;;3.67;100.00
23446;BME280;11895;48.738;9.320;2023-03-01T05:21:12;99374.78;;;3.68;100.00
23446;BME280;11895;48.738;9.320;2023-03-01T05:23:44;99370.28;;;3.71;100.00
23446;BME280;11895;48.738;9.320;2023-03-01T05:26:12;99373.84;;;3.73;100.00
23446;BME280;11895;48.738;9.320;2023-03-01T05:28:55;99375.47;;;3.85;100.00
23446;BME280;11895;48.738;9.320;2023-03-01T05:31:26;99370.13;;;3.86;100.00
23446;BME280;11895;48.738;9.320;2023-03-01T05:33:54;99361.19;;;3.94;100.00
23446;BME280;11895;48.738;9.320;2023-03-01T05:36:22;99367.25;;;4.06;100.00
23446;BME280;11895;48.738;9.320;2023-03-01T05:38:49;99372.69;;;3.96;100.00
23446;BME280;11895;48.738;9.320;2023-03-01T05:41:17;99373.66;;;3.89;100.00
23446;BME280;11895;48.738;9.320;2023-03-01T05:43:45;99377.16;;;3.94;100.00
23446;BME280;11895;48.738;9.320;2023-03-01T05:46:12;99378.06;;;3.93;100.00
23446;BME280;11895;48.738;9.320;2023-03-01T05:48:42;99378.06;;;3.93;100.00
23446;BME280;11895;48.738;9.320;2023-03-01T05:51:10;99373.47;;;4.07;100.00
23446;BME280;11895;48.738;9.320;2023-03-01T05:53:39;99365.56;;;3.99;100.00
23446;BME280;11895;48.738;9.320;2023-03-01T05:56:07;99361.91;;;4.08;100.00
23446;BME280;11895;48.738;9.320;2023-03-01T05:58:34;99367.91;;;4.25;100.00
23446;BME280;11895;48.738;9.320;2023-03-01T06:01:02;99358.31;;;4.09;100.00
23446;BME280;11895;48.738;9.320;2023-03-01T06:03:30;99355.63;;;4.10;100.00
23446;BME280;11895;48.738;9.320;2023-03-01T06:05:58;99347.81;;;3.98;100.00
23446;BME280;11895;48.738;9.320;2023-03-01T06:08:26;99348.56;;;4.08;100.00
23446;BME280;11895;48.738;9.320;2023-03-01T06:10:54;99359.22;;;4.11;100.00
23446;BME280;11895;48.738;9.320;2023-03-01T06:13:23;99355.66;;;4.09;100.00
23446;BME280;11895;48.738;9.320;2023-03-01T06:15:51;99359.13;;;4.17;100.00
23446;BME280;11895;48.738;9.320;2023-03-01T06:18:19;99363.59;;;4.13;100.00
23446;BME280;11895;48.738;9.320;2023-03-01T06:20:55;99363.59;;;4.17;100.00
23446;BME280;11895;48.738;9.320;2023-03-01T06:23:23;99361.09;;;4.00;100.00
23446;BME280;11895;48.738;9.320;2023-03-01T06:25:52;99354.66;;;4.19;100.00
23446;BME280;11895;48.738;9.320;2023-03-01T06:28:20;99358.34;;;4.06;100.00
23446;BME280;11895;48.738;9.320;2023-03-01T06:30:48;99351.19;;;4.12;100.00
23446;BME280;11895;48.738;9.320;2023-03-01T06:33:17;99362.63;;;4.22;100.00
23446;BME280;11895;48.738;9.320;2023-03-01T06:35:47;99357.38;;;4.16;100.00
23446;BME280;11895;48.738;9.320;2023-03-01T06:38:15;99357.38;;;4.16;100.00
23446;BME280;11895;48.738;9.320;2023-03-01T06:40:45;99366.25;;;4.15;100.00
23446;BME280;11895;48.738;9.320;2023-03-01T06:43:12;99360.97;;;4.12;100.00
23446;BME280;11895;48.738;9.320;2023-03-01T06:45:40;99361.78;;;4.17;100.00
23446;BME280;11895;48.738;9.320;2023-03-01T06:48:08;99367.13;;;4.16;100.00
23446;BME280;11895;48.738;9.320;2023-03-01T06:50:36;99360.28;;;3.95;100.00
23446;BME280;11895;48.738;9.320;2023-03-01T06:53:05;99370.16;;;3.85;100.00
23446;BME280;11895;48.738;9.320;2023-03-01T06:55:33;99365.78;;;3.79;100.00
23446;BME280;11895;48.738;9.320;2023-03-01T06:58:01;99366.56;;;3.89;100.00
23446;BME280;11895;48.738;9.320;2023-03-01T07:00:30;99361.19;;;3.91;100.00
23446;BME280;11895;48.738;9.320;2023-03-01T07:03:00;99357.88;;;3.70;100.00
23446;BME280;11895;48.738;9.320;2023-03-01T07:05:30;99358.72;;;3.72;100.00
23446;BME280;11895;48.738;9.320;2023-03-01T07:07:58;99362.19;;;3.80;100.00
23446;BME280;11895;48.738;9.320;2023-03-01T07:10:26;99354.28;;;3.74;100.00
23446;BME280;11895;48.738;9.320;2023-03-01T07:12:57;99359.72;;;3.64;100.00
23446;BME280;11895;48.738;9.320;2023-03-01T07:15:27;99359.59;;;3.77;100.00
23446;BME280;11895;48.738;9.320;2023-03-01T07:17:56;99363.03;;;3.87;100.00
23446;BME280;11895;48.738;9.320;2023-03-01T07:20:24;99354.09;;;3.93;100.00
23446;BME280;11895;48.738;9.320;2023-03-01T07:22:54;99345.34;;;3.78;100.00
23446;BME280;11895;48.738;9.320;2023-03-01T07:25:22;99349.84;;;3.73;100.00
23446;BME280;11895;48.738;9.320;2023-03-01T07:27:51;99347.03;;;3.85;100.00
23446;BME280;11895;48.738;9.320;2023-03-01T07:30:23;99339.94;;;3.88;100.00
23446;BME280;11895;48.738;9.320;2023-03-01T07:32:54;99339.88;;;3.92;100.00
23446;BME280;11895;48.738;9.320;2023-03-01T07:35:24;99335.31;;;4.00;100.00
23446;BME280;11895;48.738;9.320;2023-03-01T07:37:54;99338.00;;;3.99;100.00
23446;BME280;11895;48.738;9.320;2023-03-01T07:40:21;99337.25;;;3.88;100.00
23446;BME280;11895;48.738;9.320;2023-03-01T07:42:54;99333.50;;;4.04;100.00
23446;BME280;11895;48.738;9.320;2023-03-01T07:45:23;99333.53;;;4.02;100.00
23446;BME280;11895;48.738;9.320;2023-03-01T07:47:53;99330.56;;;4.25;100.00
23446;BME280;11895;48.738;9.320;2023-03-01T07:50:21;99322.72;;;4.16;100.00
23446;BME280;11895;48.738;9.320;2023-03-01T07:52:50;99320.59;;;4.41;100.00
23446;BME280;11895;48.738;9.320;2023-03-01T07:55:18;99321.47;;;4.42;100.00
23446;BME280;11895;48.738;9.320;2023-03-01T07:57:49;99323.06;;;4.56;100.00
23446;BME280;11895;48.738;9.320;2023-03-01T08:00:16;99316.69;;;4.65;100.00
23446;BME280;11895;48.738;9.320;2023-03-01T08:02:45;99307.19;;;4.46;100.00
23446;BME280;11895;48.738;9.320;2023-03-01T08:05:13;99312.91;;;4.78;100.00
23446;BME280;11895;48.738;9.320;2023-03-01T08:07:40;99319.38;;;4.65;100.00
23446;BME280;11895;48.738;9.320;2023-03-01T08:10:09;99314.91;;;4.66;100.00
23446;BME280;11895;48.738;9.320;2023-03-01T08:12:37;99319.16;;;4.77;100.00
23446;BME280;11895;48.738;9.320;2023-03-01T08:15:05;99305.44;;;5.02;100.00
23446;BME280;11895;48.738;9.320;2023-03-01T08:17:33;99311.72;;;4.99;100.00
23446;BME280;11895;48.738;9.320;2023-03-01T08:20:00;99321.88;;;4.76;100.00
23446;BME280;11895;48.738;9.320;2023-03-01T08:22:28;99309.69;;;5.15;99.53
23446;BME280;11895;48.738;9.320;2023-03-01T08:24:56;99321.81;;;5.34;98.37
23446;BME280;11895;48.738;9.320;2023-03-01T08:27:23;99308.66;;;4.67;100.00
23446;BME280;11895;48.738;9.320;2023-03-01T08:29:52;99308.63;;;4.68;100.00
23446;BME280;11895;48.738;9.320;2023-03-01T08:32:19;99313.66;;;4.89;100.00
23446;BME280;11895;48.738;9.320;2023-03-01T08:34:47;99308.03;;;5.08;99.43
23446;BME280;11895;48.738;9.320;2023-03-01T08:37:15;99313.69;;;4.86;100.00
23446;BME280;11895;48.738;9.320;2023-03-01T08:39:43;99304.31;;;5.16;96.92
23446;BME280;11895;48.738;9.320;2023-03-01T08:42:10;99303.16;;;5.31;92.79
23446;BME280;11895;48.738;9.320;2023-03-01T08:44:38;99306.09;;;5.67;92.77
23446;BME280;11895;48.738;9.320;2023-03-01T08:47:06;99304.81;;;5.86;91.38
23446;BME280;11895;48.738;9.320;2023-03-01T08:49:33;99308.75;;;5.67;92.17
23446;BME280;11895;48.738;9.320;2023-03-01T08:52:02;99297.56;;;5.93;92.22
23446;BME280;11895;48.738;9.320;2023-03-01T08:54:30;99299.00;;;6.11;87.18
23446;BME280;11895;48.738;9.320;2023-03-01T08:56:57;99297.31;;;6.07;84.85
23446;BME280;11895;48.738;9.320;2023-03-01T08:59:26;99292.09;;;6.01;84.51
23446;BME280;11895;48.738;9.320;2023-03-01T09:01:54;99289.53;;;6.36;83.20
23446;BME280;11895;48.738;9.320;2023-03-01T09:04:22;99280.19;;;6.14;84.70
23446;BME280;11895;48.738;9.320;2023-03-01T09:06:49;99279.56;;;6.03;83.33
23446;BME280;11895;48.738;9.320;2023-03-01T09:09:23;99270.31;;;6.19;81.50
23446;BME280;11895;48.738;9.320;2023-03-01T09:11:51;99268.28;;;6.30;81.63
23446;BME280;11895;48.738;9.320;2023-03-01T09:14:18;99256.34;;;6.45;81.14
23446;BME280;11895;48.738;9.320;2023-03-01T09:16:46;99251.59;;;6.58;79.49
23446;BME280;11895;48.738;9.320;2023-03-01T09:19:14;99251.22;;;6.73;78.27
23446;BME280;11895;48.738;9.320;2023-03-01T09:21:42;99251.00;;;6.82;75.71
23446;BME280;11895;48.738;9.320;2023-03-01T09:24:23;99249.38;;;6.75;74.28
23446;BME280;11895;48.738;9.320;2023-03-01T09:26:54;99254.22;;;6.97;77.46
23446;BME280;11895;48.738;9.320;2023-03-01T09:29:23;99243.88;;;6.81;72.44
23446;BME280;11895;48.738;9.320;2023-03-01T09:31:51;99248.38;;;7.15;75.10
23446;BME280;11895;48.738;9.320;2023-03-01T09:34:23;99242.13;;;7.16;71.75
23446;BME280;11895;48.738;9.320;2023-03-01T09:36:51;99248.16;;;7.24;72.59
23446;BME280;11895;48.738;9.320;2023-03-01T09:39:19;99250.22;;;7.13;70.08
23446;BME280;11895;48.738;9.320;2023-03-01T09:42:00;99245.41;;;7.27;68.75
23446;BME280;11895;48.738;9.320;2023-03-01T09:47:20;99243.84;;;7.51;64.56
23446;BME280;11895;48.738;9.320;2023-03-01T09:55:55;99229.84;;;8.04;66.41
23446;BME280;11895;48.738;9.320;2023-03-01T10:01:21;99225.44;;;8.01;60.69
23446;BME280;11895;48.738;9.320;2023-03-01T10:09:41;99213.00;;;8.28;59.63
23446;BME280;11895;48.738;9.320;2023-03-01T10:12:13;99206.19;;;8.46;58.36
23446;BME280;11895;48.738;9.320;2023-03-01T10:14:51;99203.06;;;8.60;59.17
23446;BME280;11895;48.738;9.320;2023-03-01T10:17:38;99208.28;;;8.92;56.72
23446;BME280;11895;48.738;9.320;2023-03-01T10:20:22;99199.94;;;8.45;58.02
23446;BME280;11895;48.738;9.320;2023-03-01T10:22:52;99185.97;;;8.90;57.17
23446;BME280;11895;48.738;9.320;2023-03-01T10:31:19;99176.66;;;9.00;54.17
23446;BME280;11895;48.738;9.320;2023-03-01T10:33:49;99175.66;;;9.28;55.89
23446;BME280;11895;48.738;9.320;2023-03-01T10:36:23;99171.13;;;9.30;53.78
23446;BME280;11895;48.738;9.320;2023-03-01T10:38:55;99168.44;;;9.55;52.69
23446;BME280;11895;48.738;9.320;2023-03-01T10:41:26;99169.03;;;9.63;52.93
23446;BME280;11895;48.738;9.320;2023-03-01T10:43:58;99167.44;;;9.81;51.66
23446;BME280;11895;48.738;9.320;2023-03-01T10:46:34;99168.34;;;9.58;52.39
23446;BME280;11895;48.738;9.320;2023-03-01T10:49:21;99160.09;;;9.63;51.54
23446;BME280;11895;48.738;9.320;2023-03-01T10:51:52;99154.28;;;9.50;50.97
23446;BME280;11895;48.738;9.320;2023-03-01T10:54:32;99156.81;;;9.55;51.89
23446;BME280;11895;48.738;9.320;2023-03-01T10:57:04;99150.75;;;9.96;50.62
23446;BME280;11895;48.738;9.320;2023-03-01T10:59:37;99154.94;;;10.03;50.58
23446;BME280;11895;48.738;9.320;2023-03-01T11:02:30;99153.09;;;9.82;49.31
23446;BME280;11895;48.738;9.320;2023-03-01T11:07:55;99134.09;;;10.09;49.26
23446;BME280;11895;48.738;9.320;2023-03-01T11:10:35;99136.78;;;10.32;48.36
23446;BME280;11895;48.738;9.320;2023-03-01T11:13:17;99131.31;;;10.12;47.60
23446;BME280;11895;48.738;9.320;2023-03-01T11:16:07;99125.53;;;10.44;48.88
23446;BME280;11895;48.738;9.320;2023-03-01T11:18:38;99120.44;;;10.59;48.71
23446;BME280;11895;48.738;9.320;2023-03-01T11:21:16;99116.06;;;10.56;47.78
23446;BME280;11895;48.738;9.320;2023-03-01T11:23:43;99114.94;;;10.82;47.64
23446;BME280;11895;48.738;9.320;2023-03-01T11:26:13;99110.91;;;10.72;45.90
23446;BME280;11895;48.738;9.320;2023-03-01T11:28:43;99107.13;;;10.76;46.36
23446;BME280;11895;48.738;9.320;2023-03-01T11:31:17;99094.53;;;10.97;46.09
23446;BME280;11895;48.738;9.320;2023-03-01T11:34:03;99093.81;;;10.93;46.14
23446;BME280;11895;48.738;9.320;2023-03-01T11:36:44;99094.53;;;10.97;45.79
23446;BME280;11895;48.738;9.320;2023-03-01T11:55:07;99053.16;;;11.57;43.58
23446;BME280;11895;48.738;9.320;2023-03-01T11:57:50;99056.13;;;11.91;43.42
23446;BME280;11895;48.738;9.320;2023-03-01T12:00:47;99050.13;;;12.56;42.05
23446;BME280;11895;48.738;9.320;2023-03-01T12:09:31;99037.91;;;12.84;41.53
23446;BME280;11895;48.738;9.320;2023-03-01T12:15:11;99024.13;;;13.56;40.50
23446;BME280;11895;48.738;9.320;2023-03-01T12:21:12;99006.56;;;14.27;38.29
23446;BME280;11895;48.738;9.320;2023-03-01T12:24:12;98996.56;;;15.17;37.15
23446;BME280;11895;48.738;9.320;2023-03-01T12:35:53;98990.84;;;16.21;35.60
23446;BME280;11895;48.738;9.320;2023-03-01T12:38:40;98983.53;;;17.90;34.69
23446;BME280;11895;48.738;9.320;2023-03-01T12:45:12;98963.84;;;19.05;33.21
23446;BME280;11895;48.738;9.320;2023-03-01T12:47:41;98955.34;;;19.76;30.04
23446;BME280;11895;48.738;9.320;2023-03-01T12:50:23;98956.31;;;19.42;30.49
23446;BME280;11895;48.738;9.320;2023-03-01T12:52:57;98957.09;;;19.44;32.36
23446;BME280;11895;48.738;9.320;2023-03-01T12:55:37;98957.91;;;20.00;28.95
23446;BME280;11895;48.738;9.320;2023-03-01T13:12:50;98923.59;;;20.93;27.29
23446;BME280;11895;48.738;9.320;2023-03-01T13:15:44;98936.69;;;21.10;27.46
23446;BME280;11895;48.738;9.320;2023-03-01T13:20:58;98935.47;;;21.45;27.24
23446;BME280;11895;48.738;9.320;2023-03-01T13:23:34;98941.69;;;21.26;26.22
23446;BME280;11895;48.738;9.320;2023-03-01T13:26:18;98933.66;;;22.05;26.21
23446;BME280;11895;48.738;9.320;2023-03-01T13:39:00;98923.19;;;22.97;26.13
23446;BME280;11895;48.738;9.320;2023-03-01T13:44:24;98913.81;;;22.42;24.20
23446;BME280;11895;48.738;9.320;2023-03-01T13:47:01;98919.41;;;23.55;24.16
23446;BME280;11895;48.738;9.320;2023-03-01T13:52:53;98909.16;;;24.66;22.25
23446;BME280;11895;48.738;9.320;2023-03-01T13:55:30;98904.28;;;22.46;23.96
23446;BME280;11895;48.738;9.320;2023-03-01T13:58:28;98898.97;;;21.44;24.72
23446;BME280;11895;48.738;9.320;2023-03-01T14:01:04;98897.44;;;23.82;23.32
23446;BME280;11895;48.738;9.320;2023-03-01T14:03:40;98889.84;;;25.19;22.69
23446;BME280;11895;48.738;9.320;2023-03-01T14:06:23;98877.53;;;24.34;22.77
23446;BME280;11895;48.738;9.320;2023-03-01T14:09:23;98881.03;;;24.36;22.13
23446;BME280;11895;48.738;9.320;2023-03-01T14:15:19;98881.72;;;25.44;21.96
23446;BME280;11895;48.738;9.320;2023-03-01T14:18:36;98904.16;;;25.83;22.14
23446;BME280;11895;48.738;9.320;2023-03-01T14:21:14;98906.41;;;21.63;24.53
23446;BME280;11895;48.738;9.320;2023-03-01T14:23:42;98910.69;;;21.56;25.97
23446;BME280;11895;48.738;9.320;2023-03-01T14:26:10;98904.84;;;22.59;24.96
23446;BME280;11895;48.738;9.320;2023-03-01T14:28:42;98908.00;;;23.03;24.58
23446;BME280;11895;48.738;9.320;2023-03-01T14:31:35;98906.38;;;24.57;22.52
23446;BME280;11895;48.738;9.320;2023-03-01T14:34:23;98908.69;;;24.70;23.08
23446;BME280;11895;48.738;9.320;2023-03-01T14:36:51;98907.59;;;25.85;22.24
23446;BME280;11895;48.738;9.320;2023-03-01T14:39:24;98912.13;;;25.94;21.20
23446;BME280;11895;48.738;9.320;2023-03-01T14:41:55;98924.75;;;23.94;21.71
23446;BME280;11895;48.738;9.320;2023-03-01T14:44:28;98929.81;;;20.53;25.29
23446;BME280;11895;48.738;9.320;2023-03-01T14:46:57;98931.78;;;17.64;28.94
23446;BME280;11895;48.738;9.320;2023-03-01T14:49:29;98923.59;;;20.40;27.02
23446;BME280;11895;48.738;9.320;2023-03-01T14:52:04;98932.72;;;19.86;26.57
23446;BME280;11895;48.738;9.320;2023-03-01T14:54:46;98929.75;;;19.66;28.70
23446;BME280;11895;48.738;9.320;2023-03-01T14:57:22;98926.91;;;19.79;28.02
23446;BME280;11895;48.738;9.320;2023-03-01T14:59:58;98922.59;;;20.52;26.57
23446;BME280;11895;48.738;9.320;2023-03-01T15:02:29;98923.50;;;21.46;25.42
23446;BME280;11895;48.738;9.320;2023-03-01T15:05:02;98919.00;;;20.51;26.79
23446;BME280;11895;48.738;9.320;2023-03-01T15:07:40;98919.38;;;21.30;25.31
23446;BME280;11895;48.738;9.320;2023-03-01T15:10:38;98914.25;;;21.77;25.31
23446;BME280;11895;48.738;9.320;2023-03-01T15:13:23;98918.47;;;21.91;25.14
23446;BME280;11895;48.738;9.320;2023-03-01T15:15:53;98920.63;;;21.88;25.35
23446;BME280;11895;48.738;9.320;2023-03-01T15:18:30;98913.84;;;19.38;27.45
23446;BME280;11895;48.738;9.320;2023-03-01T15:21:38;98921.56;;;19.77;27.16
23446;BME280;11895;48.738;9.320;2023-03-01T15:26:54;98925.25;;;19.99;27.08
23446;BME280;11895;48.738;9.320;2023-03-01T15:29:30;98914.78;;;21.10;27.25
23446;BME280;11895;48.738;9.320;2023-03-01T15:32:20;98918.75;;;17.93;29.02
23446;BME280;11895;48.738;9.320;2023-03-01T15:34:52;98930.69;;;17.80;30.55
23446;BME280;11895;48.738;9.320;2023-03-01T15:37:44;98918.91;;;18.27;28.98